Latest Weather Observations for Thredbo Top Station

IDN60801

Issued at 5:03 am EST Sunday 24 July 2016 (issued every 30 minutes, with the page automatically refreshed every 10 minutes)

About weather observations | Map of weather stations | Latest weather observations for NSW | Other Formats
Station Details ID: 071032 Name: THREDBO AWS Lat: -36.49 Lon: 148.29 Height: 1957.0 m
Data from the previous 72 hours. | See also: Recent months at Thredbo Top Station
Date/Time
EST
Temp
°C
App
Temp
°C
Dew
Point
°C
Rel
Hum
%
Delta-T
°C
Wind Press
QNH
hPa
Press
MSL
hPa
Rain since
9am
mm
Dir  Spd
km/h
Gust
km/h
Spd
kts
Gust
kts
24/05:00am -7.1 -20.8 -7.5 97 -0.2 NW 57 80 31 43 - - 0.0
24/04:30am -7.2 -20.7 -7.7 96 -0.1 NW 56 76 30 41 - - 0.0
24/04:00am -7.1 -20.2 -7.5 97 -0.2 NW 54 72 29 39 - - 0.0
24/03:40am -7.1 -20.6 -7.5 97 -0.2 NW 56 74 30 40 - - 0.0
24/03:30am -7.1 -20.2 -7.5 97 -0.2 NW 54 70 29 38 - - 0.0
24/03:00am -7.0 -20.1 -7.4 97 -0.1 NW 54 69 29 37 - - 0.0
24/02:30am -6.7 -19.0 -7.1 97 -0.1 NW 50 63 27 34 - - 0.0
24/02:00am -6.8 -18.7 -7.2 97 -0.1 NW 48 61 26 33 - - 0.0
24/01:37am -6.7 -18.3 -7.1 97 -0.1 NW 46 67 25 36 - - 0.0
24/01:30am -6.5 -18.0 -6.9 97 -0.1 WNW 46 56 25 30 - - 0.0
24/01:00am -6.6 -18.9 -7.0 97 -0.1 NW 50 63 27 34 - - 0.0
24/12:30am -6.2 -18.5 -6.5 98 -0.2 NW 50 61 27 33 - - 0.0
24/12:01am -6.2 -18.5 -6.5 98 -0.2 NW 50 69 27 37 - - 0.0
24/12:00am -6.2 -18.5 -6.5 98 -0.2 NW 50 65 27 35 - - 0.0
 
Date/Time
EST
Temp
°C
App
Temp
°C
Dew
Point
°C
Rel
Hum
%
Delta-T
°C
Wind Press
QNH
hPa
Press
MSL
hPa
Rain since
9am
mm
Dir  Spd
km/h
Gust
km/h
Spd
kts
Gust
kts
23/11:30pm -5.9 -16.8 -6.2 98 -0.1 WNW 43 59 23 32 - - 0.0
23/11:00pm -6.1 -18.0 -6.4 98 -0.2 WNW 48 61 26 33 - - 0.0
23/10:34pm -6.1 -17.6 -6.4 98 -0.2 NW 46 67 25 36 - - 0.0
23/10:30pm -6.2 -18.1 -6.5 98 -0.2 NW 48 59 26 32 - - 0.0
23/10:00pm -6.3 -17.8 -6.6 98 -0.2 NW 46 61 25 33 - - 0.0
23/09:30pm -5.8 -16.3 -6.1 98 -0.1 NW 41 59 22 32 - - 0.0
23/09:00pm -6.0 -17.5 -6.3 98 -0.2 NW 46 70 25 38 - - 0.0
23/08:30pm -6.0 -16.5 -6.3 98 -0.2 NW 41 65 22 35 - - 0.0
23/08:00pm -6.1 -17.6 -6.4 98 -0.2 NW 46 65 25 35 - - 0.0
23/07:30pm -6.1 -17.0 -6.4 98 -0.2 NW 43 63 23 34 - - 0.0
23/07:00pm -6.2 -18.1 -6.5 98 -0.2 NW 48 74 26 40 - - 0.0
23/06:30pm -6.6 -19.3 -7.0 97 -0.1 NW 52 83 28 45 - - 0.0
23/06:27pm -6.6 -18.5 -7.0 97 -0.1 NW 48 83 26 45 - - 0.0
23/06:00pm -5.9 -16.8 -6.2 98 -0.1 NW 43 61 23 33 - - 0.0
23/05:30pm -6.2 -17.7 -6.5 98 -0.2 NW 46 72 25 39 - - 0.0
23/05:04pm -6.3 -18.9 -6.6 98 -0.2 NW 52 70 28 38 - - 0.0
23/05:00pm -6.4 -19.4 -6.8 97 -0.1 NW 54 70 29 38 - - 0.0
23/04:31pm -6.2 -17.7 -6.5 98 -0.2 NW 46 65 25 35 - - 0.0
23/04:30pm -6.2 -18.1 -6.5 98 -0.2 NW 48 65 26 35 - - 0.0
23/04:00pm -6.2 -17.7 -6.5 98 -0.2 NW 46 69 25 37 - - 0.0
23/03:30pm -6.1 -17.2 -6.4 98 -0.2 NW 44 63 24 34 - - 0.0
23/03:00pm -5.8 -16.7 -6.1 98 -0.1 NW 43 65 23 35 - - 0.0
23/02:33pm -5.8 -17.3 -6.1 98 -0.1 NW 46 72 25 39 - - 0.0
23/02:30pm -5.8 -16.9 -6.1 98 -0.1 NW 44 56 24 30 - - 0.0
23/02:06pm -5.8 -16.7 -6.1 98 -0.1 NW 43 61 23 33 - - 0.0
23/02:00pm -5.7 -15.8 -6.0 98 -0.1 NW 39 54 21 29 - - 0.0
23/01:30pm -5.9 -16.8 -6.2 98 -0.1 NW 43 65 23 35 - - 0.0
23/01:00pm -5.7 -17.9 -6.0 98 -0.1 NW 50 72 27 39 - - 0.0
23/12:53pm -5.2 -17.7 -5.5 98 -0.1 NW 52 76 28 41 - - 0.0
23/12:30pm -3.8 -16.5 -3.9 99 -0.1 NNW 54 74 29 40 - - 0.0
23/12:00pm -4.1 -15.0 -4.2 99 -0.2 NW 44 70 24 38 - - 0.0
23/11:30am -4.1 -15.4 -4.2 99 -0.2 NW 46 65 25 35 - - 0.0
23/11:00am -4.4 -15.7 -4.7 98 -0.1 NW 46 65 25 35 - - 0.0
23/10:30am -4.2 -15.9 -4.3 99 -0.2 NW 48 72 26 39 - - 0.0
23/10:25am -4.1 -15.4 -4.2 99 -0.2 NNW 46 65 25 35 - - 0.0
23/10:21am -4.0 -14.9 -4.1 99 -0.1 NW 44 65 24 35 - - 0.0
23/10:00am -4.0 -14.9 -4.1 99 -0.1 NW 44 69 24 37 - - 0.0
23/09:30am -4.1 -15.0 -4.2 99 -0.2 NW 44 65 24 35 - - 0.0
23/09:00am -4.2 -15.1 -4.3 99 -0.2 NW 44 63 24 34 - - 74.6
23/08:30am -4.3 -15.2 -4.4 99 -0.2 NW 44 65 24 35 - - 74.6
23/08:00am -4.1 -14.0 -4.2 99 -0.2 NW 39 65 21 35 - - 74.6
23/07:30am -4.3 -16.3 -4.4 99 -0.2 NW 50 69 27 37 - - 74.6
23/07:00am -4.3 -15.6 -4.4 99 -0.2 NW 46 72 25 39 - - 74.6
23/06:30am -4.3 -15.6 -4.4 99 -0.2 NW 46 72 25 39 - - 74.6
23/06:00am -4.1 -15.7 -4.2 99 -0.2 WNW 48 78 26 42 - - 74.6
23/05:30am -4.3 -16.0 -4.4 99 -0.2 WNW 48 80 26 43 - - 74.6
23/05:00am -3.9 -15.1 -4.0 99 -0.1 WNW 46 83 25 45 - - 74.6
23/04:42am -3.7 -12.8 -3.8 99 -0.1 W 35 72 19 39 - - 74.6
23/04:31am -3.4 -11.9 -3.5 99 -0.1 WNW 32 50 17 27 - - 74.6
23/04:30am -3.4 -12.1 -3.5 99 -0.1 W 33 50 18 27 - - 74.6
23/04:28am -3.4 -11.9 -3.5 99 -0.1 W 32 50 17 27 - - 74.6
23/04:11am -3.3 -13.5 -3.4 99 -0.1 WNW 41 74 22 40 - - 74.6
23/04:00am -3.3 -16.4 -3.4 99 -0.1 WNW 56 89 30 48 - - 74.6
23/03:51am -3.1 -14.6 -3.2 99 -0.1 NW 48 89 26 48 - - 74.6
23/03:43am -3.3 -15.6 -3.4 99 -0.1 NW 52 91 28 49 - - 74.6
23/03:30am -3.5 -17.5 -3.6 99 -0.1 NW 61 98 33 53 - - 74.6
23/03:00am -2.7 -17.4 -2.8 99 -0.1 NW 65 96 35 52 - - 74.6
23/02:43am -2.7 -15.9 -2.8 99 -0.1 NW 57 122 31 66 - - 74.6
23/02:35am -2.2 -17.6 -2.3 99 -0.1 NW 69 120 37 65 - - 74.6
23/02:30am -2.5 -17.6 -2.6 99 -0.1 NW 67 120 36 65 - - 74.6
23/02:27am -2.5 -16.8 -2.6 99 -0.1 NW 63 120 34 65 - - 74.6
23/02:26am -2.4 -16.3 -2.5 99 -0.1 NW 61 120 33 65 - - 74.6
23/02:13am -1.8 -15.6 -1.9 99 -0.1 NW 61 98 33 53 - - 74.6
23/02:00am -1.5 -14.0 -1.6 99 0.0 NW 54 80 29 43 - - 74.6
23/01:30am -1.5 -14.5 -1.6 99 0.0 NW 57 93 31 50 - - 74.6
23/01:22am -1.5 -15.3 -1.6 99 0.0 NW 61 93 33 50 - - 74.6
23/01:18am -1.6 -14.6 -1.7 99 0.0 NW 57 87 31 47 - - 74.6
23/01:08am -1.6 -15.0 -1.7 99 0.0 NW 59 96 32 52 - - 74.6
23/01:05am -1.6 -14.6 -1.7 99 0.0 NW 57 96 31 52 - - 74.6
23/01:04am -1.5 -14.5 -1.6 99 0.0 NW 57 96 31 52 - - 74.6
23/01:00am -1.6 -16.2 -1.7 99 0.0 WNW 65 111 35 60 - - 74.6
23/12:51am -1.6 -16.2 -1.7 99 0.0 NW 65 111 35 60 - - 74.6
23/12:47am -1.7 -14.8 -1.8 99 0.0 NW 57 93 31 50 - - 74.6
23/12:43am -1.7 -14.2 -1.8 99 0.0 NW 54 85 29 46 - - 74.6
23/12:42am -1.6 -14.5 -1.7 99 0.0 NW 56 85 30 46 - - 74.6
23/12:34am -1.6 -13.7 -1.7 99 0.0 WNW 52 85 28 46 - - 74.6
23/12:30am -1.6 -12.2 -1.7 99 0.0 WNW 44 80 24 43 - - 74.6
23/12:25am -1.5 -12.4 -1.6 99 0.0 WNW 46 76 25 41 - - 74.6
23/12:00am -0.9 -14.6 -1.0 99 0.0 NW 61 95 33 51 - - 74.6
 
Date/Time
EST
Temp
°C
App
Temp
°C
Dew
Point
°C
Rel
Hum
%
Delta-T
°C
Wind Press
QNH
hPa
Press
MSL
hPa
Rain since
9am
mm
Dir  Spd
km/h
Gust
km/h
Spd
kts
Gust
kts
22/11:37pm -0.5 -12.1 -0.6 99 0.0 NW 50 91 27 49 - - 74.6
22/11:30pm -0.2 -10.6 -0.3 99 0.0 NW 44 76 24 41 - - 74.6
22/11:05pm -0.3 -9.8 -0.4 99 0.0 NW 39 76 21 41 - - 74.6
22/11:00pm -0.3 -11.1 -0.4 99 0.0 NW 46 83 25 45 - - 74.6
22/10:30pm -0.7 -13.1 -0.8 99 0.0 NW 54 89 29 48 - - 74.6
22/10:07pm -0.7 -13.4 -0.8 99 0.0 NW 56 93 30 50 - - 74.6
22/10:00pm -0.6 -11.0 -0.7 99 0.0 NW 44 69 24 37 - - 74.6
22/09:52pm -0.6 -11.8 -0.7 99 0.0 NW 48 80 26 43 - - 74.6
22/09:51pm -0.6 -11.8 -0.7 99 0.0 NW 48 80 26 43 - - 74.6
22/09:44pm -0.7 -11.2 -0.8 99 0.0 NW 44 80 24 43 - - 74.6
22/09:31pm -0.6 -10.1 -0.7 99 0.0 NW 39 63 21 34 - - 74.6
22/09:30pm -0.6 -10.1 -0.7 99 0.0 WNW 39 56 21 30 - - 74.6
22/09:00pm -0.4 -12.3 -0.5 99 0.0 NW 52 83 28 45 - - 74.6
22/08:30pm -0.2 -10.4 -0.3 99 0.0 NW 43 72 23 39 - - 74.6
22/08:00pm -0.1 -11.6 -0.2 99 0.0 WNW 50 72 27 39 - - 74.6
22/07:30pm -0.7 -11.0 -0.8 99 0.0 WNW 43 70 23 38 - - 74.6
22/07:00pm -0.5 -10.7 -0.6 99 0.0 WNW 43 67 23 36 - - 74.6
22/06:30pm -0.3 -10.7 -0.4 99 0.0 WNW 44 72 24 39 - - 74.6
22/06:00pm 0.9 -9.1 0.8 99 0.0 WNW 43 96 23 52 - - 74.6
22/05:39pm 1.9 -8.2 1.8 99 0.0 WNW 44 80 24 43 - - 74.6
22/05:37pm 2.0 -8.0 1.9 99 0.0 WNW 44 74 24 40 - - 74.6
22/05:36pm 2.1 -8.3 2.0 99 0.0 WNW 46 89 25 48 - - 74.6
22/05:30pm 2.3 -9.6 2.2 99 0.0 WNW 54 89 29 48 - - 74.6
22/05:28pm 2.4 -9.5 2.3 99 0.0 WNW 54 89 29 48 - - 74.6
22/05:27pm 2.5 -9.4 2.4 99 0.0 WNW 54 89 29 48 - - 74.6
22/05:00pm 2.9 -6.8 2.8 99 0.0 WNW 43 80 23 43 - - 72.4
22/04:56pm 3.1 -6.2 3.0 99 0.0 WNW 41 80 22 43 - - 72.0
22/04:48pm 3.0 -8.0 2.9 99 0.0 WNW 50 96 27 52 - - 71.6
22/04:30pm 3.4 -9.6 3.3 99 0.0 NW 61 96 33 52 - - 71.4
22/04:20pm 3.2 -8.5 3.1 99 0.0 NW 54 89 29 48 - - 71.0
22/04:00pm 1.8 -7.7 1.7 99 0.0 WNW 41 67 22 36 - - 68.8
22/03:30pm 3.4 -5.5 3.3 99 0.0 W 39 65 21 35 - - 64.8
22/03:00pm 4.5 -5.9 4.4 99 0.0 W 48 78 26 42 - - 63.0
22/02:32pm 5.6 -6.6 5.5 99 0.0 NW 59 104 32 56 - - 59.0
22/02:30pm 5.5 -7.5 5.4 99 0.0 NW 63 104 34 56 - - 57.6
22/02:14pm 5.9 -9.5 5.8 99 0.1 NW 76 117 41 63 - - 52.6
22/02:09pm 5.6 -9.9 5.5 99 0.0 NW 76 117 41 63 - - 51.0
22/02:00pm 5.5 -8.3 5.4 99 0.0 NW 67 115 36 62 - - 49.8
22/01:57pm 5.8 -6.8 5.7 99 0.0 NW 61 115 33 62 - - 49.4
22/01:53pm 5.8 -4.7 5.7 99 0.0 NW 50 89 27 48 - - 48.2
22/01:44pm 6.2 -5.0 6.1 99 0.1 NW 54 89 29 48 - - 43.4
22/01:43pm 6.1 -5.1 6.0 99 0.1 NW 54 89 29 48 - - 43.2
22/01:36pm 5.9 -6.3 5.8 99 0.1 NW 59 98 32 53 - - 41.0
22/01:33pm 5.8 -6.8 5.7 99 0.0 NW 61 98 33 53 - - 40.4
22/01:30pm 5.4 -8.4 5.3 99 0.0 NW 67 98 36 53 - - 39.4
22/01:00pm 6.1 -7.9 6.0 99 0.1 NW 69 106 37 57 - - 32.2
22/12:51pm 5.6 -7.4 5.5 99 0.0 NW 63 106 34 57 - - 31.0
22/12:30pm 6.2 -5.3 6.1 99 0.1 NW 56 93 30 50 - - 27.4
22/12:00pm 6.1 -6.8 6.0 99 0.1 NW 63 113 34 61 - - 23.2
22/11:55am 6.2 -9.1 6.1 99 0.1 NNW 76 113 41 61 - - 21.8
22/11:45am 5.4 -10.1 5.3 99 0.0 NNW 76 109 41 59 - - 18.4
22/11:30am 5.8 -6.8 5.7 99 0.0 NNW 61 111 33 60 - - 15.8
22/11:24am 5.8 -6.4 5.7 99 0.0 NNW 59 102 32 55 - - 14.2
22/11:18am 6.0 -7.3 5.9 99 0.1 NNW 65 104 35 56 - - 12.6
22/11:15am 5.7 -7.6 5.6 99 0.0 NNW 65 104 35 56 - - 12.0
22/11:13am 5.8 -6.8 5.7 99 0.0 NNW 61 93 33 50 - - 11.4
22/11:11am 5.9 -6.6 5.8 99 0.1 NNW 61 96 33 52 - - 11.0
22/11:00am 5.5 -9.6 5.4 99 0.0 NNW 74 119 40 64 - - 9.0
22/10:48am 5.2 -10.3 5.1 99 0.0 NNW 76 113 41 61 - - 6.8
22/10:45am 5.6 -10.6 5.5 99 0.0 NNW 80 111 43 60 - - 6.0
22/10:38am 5.4 -10.9 5.3 99 0.0 NNW 80 111 43 60 - - 5.2
22/10:30am 5.6 -8.1 5.5 99 0.0 NNW 67 98 36 53 - - 4.8
22/10:00am 5.8 -6.0 5.7 99 0.0 NW 57 93 31 50 - - 4.4
22/09:30am 5.8 -7.5 5.7 99 0.0 NNW 65 91 35 49 - - 2.4
22/09:00am 5.7 -8.6 5.6 99 0.0 NNW 70 96 38 52 - - 20.8
22/08:46am 5.7 -9.4 5.6 99 0.0 NNW 74 107 40 58 - - 20.6
22/08:30am 5.5 -7.9 5.4 99 0.0 NNW 65 87 35 47 - - 19.2
22/08:04am 5.3 -8.9 5.2 99 0.0 NNW 69 104 37 56 - - 16.6
22/08:02am 5.2 -8.6 5.1 99 0.0 NNW 67 85 36 46 - - 16.4
22/08:00am 5.1 -9.3 5.0 99 0.0 NNW 70 85 38 46 - - 16.2
22/07:31am 4.8 -10.4 4.7 99 0.0 NNW 74 93 40 50 - - 13.6
22/07:30am 4.7 -10.9 4.6 99 0.0 NNW 76 93 41 50 - - 13.4
22/07:05am 4.5 -11.9 4.4 99 0.0 NNW 80 98 43 53 - - 12.8
22/07:00am 4.6 -12.2 4.5 99 0.0 NNW 82 98 44 53 - - 12.8
22/06:30am 4.7 -10.9 4.6 99 0.0 NNW 76 98 41 53 - - 12.2
22/06:01am 4.2 -10.2 4.1 99 0.0 NNW 69 87 37 47 - - 11.8
22/06:00am 4.1 -10.3 4.0 99 0.0 NNW 69 85 37 46 - - 11.8
22/05:36am 3.9 -11.5 3.8 99 0.0 NNW 74 100 40 54 - - 11.6
22/05:30am 3.9 -11.1 3.8 99 0.0 NNW 72 89 39 48 - - 11.4
22/05:00am 3.4 -11.3 3.3 99 0.0 NNW 70 96 38 52 - - 11.4
22/04:33am 3.2 -9.5 3.1 99 0.0 NNW 59 80 32 43 - - 11.2
22/04:30am 3.3 -9.0 3.2 99 0.0 NNW 57 80 31 43 - - 11.2
22/04:01am 2.8 -7.5 2.7 99 0.0 NNW 46 65 25 35 - - 11.2
22/04:00am 2.9 -7.8 2.8 99 0.0 NNW 48 65 26 35 - - 11.2
22/03:30am 2.8 -6.9 2.7 99 0.0 NNW 43 61 23 33 - - 11.0
22/03:00am 2.6 -7.3 2.5 99 0.0 NNW 44 65 24 35 - - 11.0
22/02:30am 2.8 -6.9 2.7 99 0.0 NNW 43 61 23 33 - - 11.0
22/02:27am 2.9 -6.4 2.8 99 0.0 NNW 41 61 22 33 - - 11.0
22/02:00am 2.6 -8.9 2.5 99 0.0 NNW 52 67 28 36 - - 10.8
22/01:48am 2.9 -8.1 2.8 99 0.0 NNW 50 69 27 37 - - 10.8
22/01:30am 2.6 -8.9 2.5 99 0.0 NNW 52 65 28 35 - - 10.8
22/01:13am 2.6 -7.2 2.5 99 0.0 NNW 43 70 23 38 - - 10.8
22/01:00am 2.5 -7.8 2.4 99 0.0 NNW 46 61 25 33 - - 10.8
22/12:30am 2.3 -8.1 2.2 99 0.0 NNW 46 57 25 31 - - 10.8
22/12:02am 2.3 -9.2 2.2 99 0.0 NNW 52 70 28 38 - - 10.8
22/12:00am 2.3 -9.6 2.2 99 0.0 NNW 54 70 29 38 - - 10.8
 
Date/Time
EST
Temp
°C
App
Temp
°C
Dew
Point
°C
Rel
Hum
%
Delta-T
°C
Wind Press
QNH
hPa
Press
MSL
hPa
Rain since
9am
mm
Dir  Spd
km/h
Gust
km/h
Spd
kts
Gust
kts
21/11:30pm 2.3 -9.2 2.2 99 0.0 NNW 52 61 28 33 - - 10.8
21/11:00pm 2.1 -8.3 2.0 99 0.0 NNW 46 57 25 31 - - 10.8
21/10:30pm 2.5 -8.3 1.8 95 0.3 NNW 48 61 26 33 - - 10.8
21/10:00pm 2.2 -7.3 1.6 96 0.3 NNW 41 48 22 26 - - 10.8
21/09:30pm 1.9 -6.5 1.8 99 0.0 NNW 35 41 19 22 - - 10.6
21/09:00pm 2.4 -5.5 2.3 99 0.0 NNW 33 43 18 23 1014.7 1018.2 10.6
21/08:30pm 2.5 -5.8 2.4 99 0.0 NNW 35 44 19 24 1014.5 1018.0 10.6
21/08:00pm 2.8 -5.4 2.7 99 0.0 NNW 35 44 19 24 1014.5 1018.0 10.6
21/07:30pm 2.8 -5.4 2.7 99 0.0 NNW 35 46 19 25 1014.5 1018.0 10.6
21/07:00pm 2.8 -5.0 2.7 99 0.0 NW 33 50 18 27 1015.1 1018.7 10.4
21/06:30pm 2.9 -4.7 2.8 99 0.0 NNW 32 43 17 23 1015.4 1018.9 10.4
21/06:00pm 2.7 -4.6 2.6 99 0.0 NW 30 43 16 23 1015.7 1019.3 10.2
21/05:30pm 2.7 -4.9 2.6 99 0.0 NNW 32 46 17 25 1015.4 1018.9 9.2
21/05:00pm 2.6 -5.1 2.5 99 0.0 NNW 32 44 17 24 1014.9 1018.4 8.8
21/04:30pm 2.5 -4.8 2.4 99 0.0 NW 30 43 16 23 1015.0 1018.5 8.6
21/04:00pm 2.6 -5.3 2.5 99 0.0 NNW 33 46 18 25 1014.9 1018.4 7.8
21/03:30pm 2.6 -5.1 2.5 99 0.0 NNW 32 44 17 24 1015.0 1018.5 7.4
21/03:27pm 2.5 -5.4 2.4 99 0.0 NNW 33 52 18 28 1015.1 1018.7 7.4
21/03:00pm 2.6 -5.1 2.5 99 0.0 NNW 32 43 17 23 1014.9 1018.4 6.6
21/02:30pm 2.7 -5.5 2.6 99 0.0 NNW 35 44 19 24 1015.0 1018.5 4.8
21/02:00pm 2.5 -6.1 2.4 99 0.0 NNW 37 44 20 24 1015.1 1018.7 3.6
21/01:30pm 2.4 -5.3 2.3 99 0.0 NNW 32 41 17 22 1015.7 1019.3 3.2
21/01:00pm 2.3 -5.6 2.2 99 0.0 NNW 33 43 18 23 1016.1 1019.7 2.0
21/12:30pm 2.3 -5.6 2.2 99 0.0 NNW 33 41 18 22 1016.6 1020.2 0.4
21/12:00pm 2.4 -4.9 2.3 99 0.0 NNW 30 37 16 20 1017.6 1021.2 0.4
21/11:30am 2.6 -4.7 2.5 99 0.0 NNW 30 37 16 20 1018.4 1022.1 0.2
21/11:00am 3.4 -4.4 1.4 87 0.9 NNW 32 37 17 20 1018.3 1022.0 0.0
21/10:30am 3.9 -3.2 1.3 83 1.2 NNW 28 32 15 17 1018.8 1022.5 0.0
21/10:00am 3.6 -2.8 1.0 83 1.1 NNW 24 28 13 15 1019.0 1022.7 0.0
21/09:30am 2.1 -4.1 2.0 99 0.0 NNW 24 30 13 16 1019.3 1023.0 0.0
21/09:00am 2.2 -4.0 2.1 99 0.0 NNW 24 32 13 17 1019.6 1023.4 0.2
21/08:30am 2.3 -3.5 2.2 99 0.0 NNW 22 35 12 19 1019.6 1023.4 -
21/08:00am 1.2 -4.2 1.1 99 0.0 NNW 19 22 10 12 1019.6 1023.4 -
21/07:30am 2.0 -3.9 1.4 96 0.3 NNW 22 30 12 16 1019.7 1023.5 -
21/07:00am 2.1 -4.6 1.7 97 0.2 NNW 26 32 14 17 1019.9 1023.6 -
21/06:30am 2.2 -4.6 1.0 92 0.5 NNW 26 30 14 16 1019.7 1023.5 -
21/06:00am 1.7 -4.7 0.7 93 0.4 NNW 24 28 13 15 1019.6 1023.4 -
21/05:30am 1.2 -5.2 0.8 97 0.2 NNW 24 28 13 15 1019.6 1023.4 -

Other Formats:

Comma delimited format used in spreadsheet applications
http://www.bom.gov.au/fwo/IDN60801/IDN60801.95909.axf

JavaScript Object Notation format (JSON) in row-major order
http://www.bom.gov.au/fwo/IDN60801/IDN60801.95909.json